createdAt,value
2024-02-10T00:01:50.080Z,-7.69
2024-02-10T00:04:18.598Z,-7.72
2024-02-10T00:06:47.866Z,-7.67
2024-02-10T00:09:15.952Z,-7.72
2024-02-10T00:11:47.180Z,-7.78
2024-02-10T00:14:16.758Z,-7.82
2024-02-10T00:16:46.113Z,-7.85
2024-02-10T00:19:14.073Z,-7.89
2024-02-10T00:21:42.580Z,-7.84
2024-02-10T00:24:12.774Z,-7.90
2024-02-10T00:26:40.922Z,-7.87
2024-02-10T00:29:12.209Z,-7.85
2024-02-10T00:31:43.471Z,-7.82
2024-02-10T00:34:14.485Z,-7.82
2024-02-10T00:36:42.569Z,-7.83
2024-02-10T00:39:12.084Z,-7.81
2024-02-10T00:41:40.078Z,-7.78
2024-02-10T00:44:07.955Z,-7.72
2024-02-10T00:46:36.209Z,-7.66
2024-02-10T00:49:04.268Z,-7.60
2024-02-10T00:51:33.560Z,-7.54
2024-02-10T00:54:01.462Z,-7.46
2024-02-10T00:56:29.288Z,-7.37
2024-02-10T00:58:57.196Z,-7.28
2024-02-10T01:01:25.135Z,-7.22
2024-02-10T01:03:53.201Z,-7.15
2024-02-10T01:06:23.198Z,-7.08
2024-02-10T01:08:52.680Z,-7.01
2024-02-10T01:11:23.605Z,-6.96
2024-02-10T01:13:52.326Z,-6.92
2024-02-10T01:16:21.993Z,-6.93
2024-02-10T01:18:50.779Z,-6.93
2024-02-10T01:21:19.325Z,-6.92
2024-02-10T01:23:50.297Z,-6.90
2024-02-10T01:26:20.126Z,-6.91
2024-02-10T01:28:48.656Z,-6.93
2024-02-10T01:31:18.260Z,-6.92
2024-02-10T01:33:48.488Z,-6.90
2024-02-10T01:36:16.854Z,-6.92
2024-02-10T01:38:46.431Z,-6.93
2024-02-10T01:41:16.147Z,-6.96
2024-02-10T01:43:46.713Z,-7.02
2024-02-10T01:46:18.119Z,-7.02
2024-02-10T01:48:47.862Z,-7.11
2024-02-10T01:51:17.855Z,-7.12
2024-02-10T01:53:46.433Z,-7.14
2024-02-10T01:56:17.486Z,-7.14
2024-02-10T01:58:49.002Z,-7.15
2024-02-10T02:01:18.061Z,-7.16
2024-02-10T02:03:48.077Z,-7.15
2024-02-10T02:06:19.547Z,-7.15
2024-02-10T02:08:49.546Z,-7.15
2024-02-10T02:11:17.940Z,-7.19
2024-02-10T02:13:51.061Z,-7.20
2024-02-10T02:16:19.265Z,-7.20
2024-02-10T02:18:47.996Z,-7.16
2024-02-10T02:21:15.957Z,-7.17
2024-02-10T02:23:45.356Z,-7.10
2024-02-10T02:26:13.229Z,-7.06
2024-02-10T02:28:43.837Z,-7.00
2024-02-10T02:31:11.821Z,-6.96
2024-02-10T02:33:39.812Z,-6.93
2024-02-10T02:36:08.024Z,-6.93
2024-02-10T02:38:35.862Z,-6.88
2024-02-10T02:41:05.207Z,-6.86
2024-02-10T02:43:37.011Z,-6.83
2024-02-10T02:46:09.050Z,-6.79
2024-02-10T02:48:38.116Z,-6.80
2024-02-10T02:51:06.631Z,-6.79
2024-02-10T02:53:34.489Z,-6.78
2024-02-10T02:56:02.465Z,-6.78
2024-02-10T02:58:32.792Z,-6.74
2024-02-10T03:01:00.782Z,-6.71
2024-02-10T03:03:29.742Z,-6.68
2024-02-10T03:05:58.407Z,-6.67
2024-02-10T03:08:28.645Z,-6.62
2024-02-10T03:10:57.970Z,-6.60
2024-02-10T03:13:26.081Z,-6.58
2024-02-10T03:15:55.422Z,-6.55
2024-02-10T03:18:23.402Z,-6.53
2024-02-10T03:20:51.281Z,-6.50
2024-02-10T03:23:21.584Z,-6.47
2024-02-10T03:25:50.960Z,-6.44
2024-02-10T03:28:18.997Z,-6.48
2024-02-10T03:30:47.040Z,-6.49
2024-02-10T03:33:16.625Z,-6.54
2024-02-10T03:35:44.699Z,-6.58
2024-02-10T03:38:12.643Z,-6.63
2024-02-10T03:40:40.592Z,-6.68
2024-02-10T03:43:08.461Z,-6.72
2024-02-10T03:45:39.118Z,-6.77
2024-02-10T03:48:09.977Z,-6.79
2024-02-10T03:50:39.432Z,-6.85
2024-02-10T03:53:07.622Z,-6.89
2024-02-10T03:58:09.550Z,-6.95
2024-02-10T04:00:39.902Z,-6.96
2024-02-10T04:03:09.372Z,-6.97
2024-02-10T04:05:39.725Z,-7.00
2024-02-10T04:08:11.252Z,-7.00
2024-02-10T04:10:39.296Z,-6.98
2024-02-10T04:13:09.958Z,-7.03
2024-02-10T04:15:37.953Z,-7.07
2024-02-10T04:18:06.975Z,-7.06
2024-02-10T04:20:35.023Z,-7.08
2024-02-10T04:23:06.327Z,-7.09
2024-02-10T04:25:35.584Z,-7.06
2024-02-10T04:28:04.562Z,-7.05
2024-02-10T04:30:32.681Z,-6.99
2024-02-10T04:33:00.798Z,-6.97
2024-02-10T04:35:28.698Z,-6.95
2024-02-10T04:37:56.861Z,-6.92
2024-02-10T04:40:26.071Z,-6.90
2024-02-10T04:42:56.019Z,-6.88
2024-02-10T04:45:28.324Z,-6.86
2024-02-10T04:47:57.822Z,-6.86
2024-02-10T04:50:25.877Z,-6.84
2024-02-10T04:52:53.779Z,-6.78
2024-02-10T04:55:21.679Z,-6.73
2024-02-10T04:57:50.300Z,-6.70
2024-02-10T05:00:20.978Z,-6.66
2024-02-10T05:02:52.179Z,-6.64
2024-02-10T05:05:21.899Z,-6.66
2024-02-10T05:07:50.464Z,-6.65
2024-02-10T05:10:19.854Z,-6.62
2024-02-10T05:12:49.066Z,-6.65
2024-02-10T05:15:19.708Z,-6.60
2024-02-10T05:17:51.520Z,-6.56
2024-02-10T05:20:21.472Z,-6.56
2024-02-10T05:22:51.028Z,-6.60
2024-02-10T05:25:21.076Z,-6.58
2024-02-10T05:27:49.769Z,-6.60
2024-02-10T05:30:22.593Z,-6.61
2024-02-10T05:32:53.037Z,-6.61
2024-02-10T05:35:21.703Z,-6.58
2024-02-10T05:37:51.190Z,-6.60
2024-02-10T05:40:19.788Z,-6.62
2024-02-10T05:42:49.050Z,-6.59
2024-02-10T05:45:18.654Z,-6.51
2024-02-10T05:47:48.539Z,-6.49
2024-02-10T05:50:19.400Z,-6.44
2024-02-10T05:52:47.562Z,-6.37
2024-02-10T05:55:22.311Z,-6.33
2024-02-10T05:57:50.532Z,-6.32
2024-02-10T06:00:18.927Z,-6.27
2024-02-10T06:02:49.033Z,-6.24
2024-02-10T06:05:18.950Z,-6.25
2024-02-10T06:07:49.794Z,-6.21
2024-02-10T06:10:18.198Z,-6.24
2024-02-10T06:12:48.362Z,-6.23
2024-02-10T06:15:18.933Z,-6.20
2024-02-10T06:17:48.709Z,-6.18
2024-02-10T06:20:16.679Z,-6.15
2024-02-10T06:22:48.735Z,-6.13
2024-02-10T06:25:24.080Z,-6.11
2024-02-10T06:27:53.888Z,-6.09
2024-02-10T06:30:22.846Z,-6.09
2024-02-10T06:32:50.980Z,-6.09
2024-02-10T06:35:21.238Z,-6.10
2024-02-10T06:37:51.366Z,-6.06
2024-02-10T06:40:20.650Z,-6.06
2024-02-10T06:42:50.270Z,-6.08
2024-02-10T06:45:22.225Z,-6.10
2024-02-10T06:47:51.195Z,-6.06
2024-02-10T06:50:26.073Z,-6.00
2024-02-10T06:55:12.787Z,-5.95
2024-02-10T06:57:42.898Z,-5.94
2024-02-10T07:00:11.911Z,-5.93
2024-02-10T07:02:43.362Z,-5.89
2024-02-10T07:05:14.143Z,-5.88
2024-02-10T07:07:43.042Z,-5.83
2024-02-10T07:10:16.162Z,-5.84
2024-02-10T07:12:46.188Z,-5.84
2024-02-10T07:15:15.656Z,-5.87
2024-02-10T07:17:45.385Z,-5.87
2024-02-10T07:20:16.362Z,-5.85
2024-02-10T07:22:44.278Z,-5.82
2024-02-10T07:25:13.040Z,-5.82
2024-02-10T07:27:42.851Z,-5.84
2024-02-10T07:30:12.189Z,-5.85
2024-02-10T07:32:40.055Z,-5.85
2024-02-10T07:35:08.850Z,-5.85
2024-02-10T07:37:37.015Z,-5.87
2024-02-10T07:40:05.391Z,-5.90
2024-02-10T07:42:33.210Z,-5.91
2024-02-10T07:45:02.407Z,-5.88
2024-02-10T07:47:30.421Z,-5.91
2024-02-10T07:49:59.593Z,-5.94
2024-02-10T07:52:32.044Z,-5.93
2024-02-10T07:55:00.537Z,-5.90
2024-02-10T07:57:33.964Z,-5.85
2024-02-10T08:00:06.855Z,-5.81
2024-02-10T08:02:34.680Z,-5.84
2024-02-10T08:05:03.262Z,-5.90
2024-02-10T08:07:31.792Z,-5.88
2024-02-10T08:10:00.368Z,-5.88
2024-02-10T08:12:28.744Z,-5.88
2024-02-10T08:14:57.817Z,-5.89
2024-02-10T08:17:31.567Z,-5.85
2024-02-10T08:20:00.284Z,-5.81
2024-02-10T08:22:32.247Z,-5.72
2024-02-10T08:25:01.247Z,-5.66
2024-02-10T08:27:30.635Z,-5.64
2024-02-10T08:29:59.485Z,-5.69
2024-02-10T08:32:30.588Z,-5.67
2024-02-10T08:35:00.384Z,-5.60
2024-02-10T08:37:31.856Z,-5.56
2024-02-10T08:39:59.810Z,-5.48
2024-02-10T08:42:28.600Z,-5.48
2024-02-10T08:44:56.718Z,-5.40
2024-02-10T08:47:26.796Z,-5.33
2024-02-10T08:49:56.164Z,-5.23
2024-02-10T08:52:25.484Z,-5.24
2024-02-10T08:54:58.198Z,-5.29
2024-02-10T08:57:26.814Z,-5.20
2024-02-10T08:59:55.038Z,-5.21
2024-02-10T09:02:23.894Z,-5.16
2024-02-10T09:04:52.309Z,-5.06
2024-02-10T09:07:21.650Z,-5.05
2024-02-10T09:09:49.932Z,-5.01
2024-02-10T09:12:18.860Z,-4.99
2024-02-10T09:14:47.657Z,-4.96
2024-02-10T09:17:15.573Z,-4.93
2024-02-10T09:19:43.858Z,-4.83
2024-02-10T09:22:11.939Z,-4.80
2024-02-10T09:24:41.818Z,-4.79
2024-02-10T09:27:11.445Z,-4.78
2024-02-10T09:29:39.750Z,-4.69
2024-02-10T09:32:08.447Z,-4.68
2024-02-10T09:34:36.488Z,-4.66
2024-02-10T09:37:05.210Z,-4.64
2024-02-10T09:39:34.437Z,-4.59
2024-02-10T09:42:09.730Z,-4.55
2024-02-10T09:44:38.599Z,-4.50
2024-02-10T09:47:09.421Z,-4.45
2024-02-10T09:49:40.988Z,-4.43
2024-02-10T09:52:08.952Z,-4.43
2024-02-10T09:54:36.888Z,-4.38
2024-02-10T09:57:06.528Z,-4.37
2024-02-10T09:59:34.439Z,-4.33
2024-02-10T10:02:04.251Z,-4.23
2024-02-10T10:04:32.276Z,-4.13
2024-02-10T10:07:01.381Z,-4.18
2024-02-10T10:09:31.501Z,-4.12
2024-02-10T10:11:59.371Z,-4.16
2024-02-10T10:14:28.678Z,-4.19
2024-02-10T10:16:58.855Z,-4.15
2024-02-10T10:19:28.660Z,-4.08
2024-02-10T10:21:58.650Z,-4.03
2024-02-10T10:24:28.494Z,-3.97
2024-02-10T10:26:56.816Z,-3.96
2024-02-10T10:29:24.966Z,-3.89
2024-02-10T10:31:56.251Z,-3.90
2024-02-10T10:34:25.083Z,-3.87
2024-02-10T10:36:56.081Z,-3.77
2024-02-10T10:39:25.295Z,-3.77
2024-02-10T10:41:54.579Z,-3.84
2024-02-10T10:44:23.334Z,-3.75
2024-02-10T10:46:53.421Z,-3.78
2024-02-10T10:49:22.964Z,-3.74
2024-02-10T10:51:55.236Z,-3.77
2024-02-10T10:54:26.825Z,-3.70
2024-02-10T10:56:54.957Z,-3.69
2024-02-10T10:59:25.068Z,-3.61
2024-02-10T11:01:55.178Z,-3.64
2024-02-10T11:04:26.525Z,-3.65
2024-02-10T11:06:57.632Z,-3.70
2024-02-10T11:09:27.746Z,-3.61
2024-02-10T11:11:57.364Z,-3.68
2024-02-10T11:14:25.285Z,-3.67
2024-02-10T11:16:54.621Z,-3.61
2024-02-10T11:19:24.061Z,-3.56
2024-02-10T11:21:55.132Z,-3.53
2024-02-10T11:24:23.446Z,-3.51
2024-02-10T11:26:51.533Z,-3.55
2024-02-10T11:29:21.840Z,-3.55
2024-02-10T11:31:50.225Z,-3.59
2024-02-10T11:34:19.742Z,-3.57
2024-02-10T11:36:53.325Z,-3.58
2024-02-10T11:39:23.620Z,-3.49
2024-02-10T11:41:55.926Z,-3.51
2024-02-10T11:44:27.995Z,-3.49
2024-02-10T11:46:57.214Z,-3.44
2024-02-10T11:49:25.269Z,-3.41
2024-02-10T11:51:57.981Z,-3.43
2024-02-10T11:54:29.688Z,-3.48
2024-02-10T11:56:58.712Z,-3.45
2024-02-10T11:59:29.791Z,-3.45
2024-02-10T12:01:58.901Z,-3.43
2024-02-10T12:04:29.700Z,-3.43
2024-02-10T12:06:59.206Z,-3.40
2024-02-10T12:09:27.744Z,-3.46
2024-02-10T12:12:00.809Z,-3.45
2024-02-10T12:14:31.432Z,-3.45
2024-02-10T12:17:02.666Z,-3.46
2024-02-10T12:19:30.608Z,-3.40
2024-02-10T12:21:59.801Z,-3.43
2024-02-10T12:24:29.766Z,-3.48
2024-02-10T12:26:57.609Z,-3.46
2024-02-10T12:29:26.803Z,-3.46
2024-02-10T12:31:54.731Z,-3.44
2024-02-10T12:34:22.679Z,-3.46
2024-02-10T12:36:50.668Z,-3.44
2024-02-10T12:39:21.224Z,-3.42
2024-02-10T12:41:49.133Z,-3.41
2024-02-10T12:44:17.065Z,-3.40
2024-02-10T12:46:47.207Z,-3.42
2024-02-10T12:49:15.201Z,-3.37
2024-02-10T12:51:43.158Z,-3.34
2024-02-10T12:54:12.041Z,-3.36
2024-02-10T12:56:43.586Z,-3.33
2024-02-10T12:59:12.268Z,-3.32
2024-02-10T13:01:40.349Z,-3.32
2024-02-10T13:04:08.287Z,-3.27
2024-02-10T13:06:35.255Z,-3.31
2024-02-10T13:09:04.098Z,-3.23
2024-02-10T13:11:32.200Z,-3.25
2024-02-10T13:14:01.566Z,-3.25
2024-02-10T13:16:29.521Z,-3.27
2024-02-10T13:18:59.590Z,-3.23
2024-02-10T13:21:28.500Z,-3.18
2024-02-10T13:23:56.341Z,-3.17
2024-02-10T13:26:24.438Z,-3.18
2024-02-10T13:28:54.681Z,-3.21
2024-02-10T13:31:25.446Z,-3.23
2024-02-10T13:33:55.180Z,-3.26
2024-02-10T13:36:30.700Z,-3.24
2024-02-10T13:39:15.969Z,-3.26
2024-02-10T13:42:01.211Z,-3.25
2024-02-10T13:44:46.409Z,-3.23
2024-02-10T13:47:32.965Z,-3.30
2024-02-10T13:50:18.083Z,-3.24
2024-02-10T13:53:03.284Z,-3.28
2024-02-10T13:55:48.700Z,-3.32
2024-02-10T13:58:15.403Z,-3.32
2024-02-10T14:00:45.799Z,-3.31
2024-02-10T14:03:14.903Z,-3.30
2024-02-10T14:05:59.245Z,-3.36
2024-02-10T14:08:43.019Z,-3.37
2024-02-10T14:11:21.354Z,-3.38
2024-02-10T14:13:53.126Z,-3.37
2024-02-10T14:16:29.171Z,-3.35
2024-02-10T14:19:01.247Z,-3.36
2024-02-10T14:21:35.620Z,-3.39
2024-02-10T14:24:04.483Z,-3.39
2024-02-10T14:26:43.575Z,-3.40
2024-02-10T14:29:21.465Z,-3.38
2024-02-10T14:31:52.569Z,-3.43
2024-02-10T14:34:38.524Z,-3.44
2024-02-10T14:37:27.927Z,-3.46
2024-02-10T14:40:01.069Z,-3.45
2024-02-10T14:42:29.414Z,-3.42
2024-02-10T14:44:57.407Z,-3.43
2024-02-10T14:47:26.622Z,-3.45
2024-02-10T14:49:56.201Z,-3.45
2024-02-10T14:52:24.857Z,-3.50
2024-02-10T14:54:55.218Z,-3.45
2024-02-10T14:57:23.397Z,-3.47
2024-02-10T14:59:52.243Z,-3.47
2024-02-10T15:02:23.743Z,-3.45
2024-02-10T15:04:52.131Z,-3.46
2024-02-10T15:07:23.442Z,-3.47
2024-02-10T15:09:52.347Z,-3.45
2024-02-10T15:12:20.284Z,-3.43
2024-02-10T15:14:48.587Z,-3.44
2024-02-10T15:17:18.130Z,-3.47
2024-02-10T15:19:46.648Z,-3.46
2024-02-10T15:22:16.149Z,-3.44
2024-02-10T15:24:45.837Z,-3.43
2024-02-10T15:27:16.676Z,-3.45
2024-02-10T15:29:44.656Z,-3.43
2024-02-10T15:32:12.744Z,-3.46
2024-02-10T15:34:48.455Z,-3.48
2024-02-10T15:37:25.054Z,-3.47
2024-02-10T15:39:54.602Z,-3.49
2024-02-10T15:42:22.470Z,-3.52
2024-02-10T15:44:50.311Z,-3.50
2024-02-10T15:47:19.274Z,-3.54
2024-02-10T15:49:47.904Z,-3.55
2024-02-10T15:52:20.533Z,-3.51
2024-02-10T15:54:48.523Z,-3.52
2024-02-10T15:57:19.128Z,-3.51
2024-02-10T15:59:47.048Z,-3.54
2024-02-10T16:02:18.300Z,-3.58
2024-02-10T16:04:46.600Z,-3.60
2024-02-10T16:07:14.498Z,-3.63
2024-02-10T16:09:42.940Z,-3.65
2024-02-10T16:12:10.859Z,-3.67
2024-02-10T16:14:40.077Z,-3.67
2024-02-10T16:17:08.519Z,-3.69
2024-02-10T16:19:42.664Z,-3.69
2024-02-10T16:22:10.690Z,-3.68
2024-02-10T16:24:41.177Z,-3.67
2024-02-10T16:27:09.631Z,-3.66
2024-02-10T16:29:37.475Z,-3.67
2024-02-10T16:32:11.672Z,-3.67
2024-02-10T16:34:47.874Z,-3.64
2024-02-10T16:37:18.023Z,-3.64
2024-02-10T16:39:47.627Z,-3.64
2024-02-10T16:42:17.055Z,-3.64
2024-02-10T16:44:44.928Z,-3.62
2024-02-10T16:47:14.219Z,-3.61
2024-02-10T16:49:42.110Z,-3.59
2024-02-10T16:52:10.204Z,-3.60
2024-02-10T16:54:40.758Z,-3.57
2024-02-10T16:57:08.604Z,-3.56
2024-02-10T16:59:36.529Z,-3.55
2024-02-10T17:02:05.784Z,-3.53
2024-02-10T17:04:35.083Z,-3.55
2024-02-10T17:07:02.942Z,-3.55
2024-02-10T17:09:30.788Z,-3.54
2024-02-10T17:11:58.625Z,-3.51
2024-02-10T17:14:26.484Z,-3.49
2024-02-10T17:16:54.342Z,-3.46
2024-02-10T17:19:22.396Z,-3.45
2024-02-10T17:21:53.235Z,-3.47
2024-02-10T17:24:21.521Z,-3.44
2024-02-10T17:26:49.665Z,-3.45
2024-02-10T17:29:17.948Z,-3.43
2024-02-10T17:31:50.899Z,-3.43
2024-02-10T17:34:19.948Z,-3.45
2024-02-10T17:36:48.116Z,-3.45
2024-02-10T17:39:18.196Z,-3.44
2024-02-10T17:41:46.692Z,-3.43
2024-02-10T17:44:15.020Z,-3.45
2024-02-10T17:46:49.237Z,-3.45
2024-02-10T17:49:17.822Z,-3.46
2024-02-10T17:51:47.229Z,-3.44
2024-02-10T17:54:16.731Z,-3.45
2024-02-10T17:56:45.970Z,-3.44
2024-02-10T17:59:13.857Z,-3.45
2024-02-10T18:01:41.928Z,-3.44
2024-02-10T18:04:12.980Z,-3.44
2024-02-10T18:06:42.980Z,-3.44
2024-02-10T18:09:10.851Z,-3.44
2024-02-10T18:11:39.242Z,-3.43
2024-02-10T18:14:09.291Z,-3.45
2024-02-10T18:16:37.207Z,-3.47
2024-02-10T18:19:08.642Z,-3.45
2024-02-10T18:21:36.537Z,-3.44
2024-02-10T18:24:06.088Z,-3.43
2024-02-10T18:26:33.954Z,-3.41
2024-02-10T18:29:04.034Z,-3.40
2024-02-10T18:31:34.920Z,-3.44
2024-02-10T18:34:03.023Z,-3.46
2024-02-10T18:36:31.244Z,-3.48
2024-02-10T18:38:59.499Z,-3.45
2024-02-10T18:41:27.366Z,-3.49
2024-02-10T18:43:56.758Z,-3.50
2024-02-10T18:46:24.787Z,-3.53
2024-02-10T18:48:54.514Z,-3.54
2024-02-10T18:51:22.283Z,-3.55
2024-02-10T18:53:50.185Z,-3.55
2024-02-10T18:56:22.693Z,-3.54
2024-02-10T18:58:51.074Z,-3.55
2024-02-10T19:01:19.807Z,-3.55
2024-02-10T19:03:49.407Z,-3.54
2024-02-10T19:06:19.189Z,-3.52
2024-02-10T19:08:47.754Z,-3.53
2024-02-10T19:11:15.730Z,-3.53
2024-02-10T19:13:46.693Z,-3.53
2024-02-10T19:16:14.784Z,-3.52
2024-02-10T19:18:42.671Z,-3.54
2024-02-10T19:21:13.233Z,-3.54
2024-02-10T19:23:44.177Z,-3.58
2024-02-10T19:26:12.352Z,-3.54
2024-02-10T19:28:40.392Z,-3.54
2024-02-10T19:31:12.810Z,-3.56
2024-02-10T19:33:41.161Z,-3.56
2024-02-10T19:36:12.156Z,-3.54
2024-02-10T19:38:40.944Z,-3.54
2024-02-10T19:41:17.179Z,-3.53
2024-02-10T19:43:46.402Z,-3.51
2024-02-10T19:46:13.603Z,-3.49
2024-02-10T19:48:41.830Z,-3.49
2024-02-10T19:51:14.488Z,-3.46
2024-02-10T19:53:43.927Z,-3.45
2024-02-10T19:56:13.406Z,-3.43
2024-02-10T19:58:41.415Z,-3.45
2024-02-10T20:01:10.448Z,-3.44
2024-02-10T20:03:39.801Z,-3.45
2024-02-10T20:06:08.873Z,-3.45
2024-02-10T20:08:37.191Z,-3.42
2024-02-10T20:11:05.524Z,-3.40
2024-02-10T20:13:38.057Z,-3.38
2024-02-10T20:16:06.600Z,-3.38
2024-02-10T20:18:37.495Z,-3.36
2024-02-10T20:21:08.003Z,-3.38
2024-02-10T20:23:37.167Z,-3.38
2024-02-10T20:26:08.027Z,-3.34
2024-02-10T20:28:37.304Z,-3.31
2024-02-10T20:31:05.278Z,-3.32
2024-02-10T20:33:33.203Z,-3.26
2024-02-10T20:36:01.128Z,-3.21
2024-02-10T20:38:28.992Z,-3.21
2024-02-10T20:40:56.987Z,-3.17
2024-02-10T20:43:24.834Z,-3.18
2024-02-10T20:45:54.113Z,-3.16
2024-02-10T20:48:23.447Z,-3.14
2024-02-10T20:50:53.220Z,-3.14
2024-02-10T20:53:21.771Z,-3.12
2024-02-10T20:55:50.050Z,-3.11
2024-02-10T20:58:20.847Z,-3.13
2024-02-10T21:00:51.327Z,-3.10
2024-02-10T21:03:21.927Z,-3.11
2024-02-10T21:05:50.019Z,-3.10
2024-02-10T21:08:18.034Z,-3.11
2024-02-10T21:10:46.138Z,-3.09
2024-02-10T21:13:16.975Z,-3.09
2024-02-10T21:15:45.307Z,-3.08
2024-02-10T21:18:13.619Z,-3.06
2024-02-10T21:20:43.212Z,-3.06
2024-02-10T21:23:11.173Z,-3.06
2024-02-10T21:25:39.045Z,-3.08
2024-02-10T21:28:09.696Z,-3.07
2024-02-10T21:30:37.554Z,-3.09
2024-02-10T21:33:05.604Z,-3.06
2024-02-10T21:35:33.522Z,-3.05
2024-02-10T21:38:02.735Z,-3.11
2024-02-10T21:40:30.725Z,-3.07
2024-02-10T21:42:58.674Z,-3.07
2024-02-10T21:45:26.623Z,-3.09
2024-02-10T21:47:54.555Z,-3.06
2024-02-10T21:50:24.608Z,-3.08
2024-02-10T21:52:53.482Z,-3.08
2024-02-10T21:55:22.755Z,-3.08
2024-02-10T21:57:51.080Z,-3.11
2024-02-10T22:00:26.261Z,-3.08
2024-02-10T22:02:54.331Z,-3.06
2024-02-10T22:05:22.485Z,-3.04
2024-02-10T22:07:50.593Z,-3.09
2024-02-10T22:10:18.936Z,-3.06
2024-02-10T22:12:48.584Z,-3.07
2024-02-10T22:15:20.337Z,-3.05
2024-02-10T22:17:48.676Z,-3.04
2024-02-10T22:20:19.353Z,-3.04
2024-02-10T22:22:49.013Z,-3.05
2024-02-10T22:25:18.016Z,-3.05
2024-02-10T22:27:46.026Z,-3.04
2024-02-10T22:30:20.394Z,-3.03
2024-02-10T22:32:50.147Z,-3.03
2024-02-10T22:35:20.089Z,-3.05
2024-02-10T22:37:49.544Z,-3.07
2024-02-10T22:40:23.426Z,-3.05
2024-02-10T22:42:51.391Z,-3.06
2024-02-10T22:45:21.213Z,-3.09
2024-02-10T22:47:49.123Z,-3.08
2024-02-10T22:50:20.036Z,-3.07
2024-02-10T22:52:47.927Z,-3.10
2024-02-10T22:55:18.314Z,-3.08
2024-02-10T22:57:46.977Z,-3.08
2024-02-10T23:00:21.184Z,-3.07
2024-02-10T23:02:50.634Z,-3.08
2024-02-10T23:05:21.115Z,-3.09
2024-02-10T23:07:51.141Z,-3.12
2024-02-10T23:10:18.898Z,-3.17
2024-02-10T23:12:50.468Z,-3.14
2024-02-10T23:15:23.191Z,-3.10
2024-02-10T23:17:55.290Z,-3.07
2024-02-10T23:20:26.865Z,-3.12
2024-02-10T23:22:57.733Z,-3.10
2024-02-10T23:25:25.737Z,-3.12
2024-02-10T23:27:53.696Z,-3.16
2024-02-10T23:30:21.549Z,-3.15
2024-02-10T23:32:50.874Z,-3.13
2024-02-10T23:35:23.180Z,-3.15
2024-02-10T23:37:52.082Z,-3.17
2024-02-10T23:40:20.041Z,-3.16
2024-02-10T23:42:50.036Z,-3.15
2024-02-10T23:45:18.362Z,-3.15
2024-02-10T23:47:47.136Z,-3.21
2024-02-10T23:50:20.706Z,-3.19
2024-02-10T23:52:50.129Z,-3.20
2024-02-10T23:55:18.289Z,-3.20
2024-02-10T23:57:46.123Z,-3.24
